Mae Hong Son, Thailand
Current Conditions -  °F | °C
As of 8:30 PM on Monday 22 Dec 2014 (Local Time) from VTCC Reporting Station
Broken Clouds Broken Clouds  
Wind Chill: 68°   Ceiling: 30000
Heat Index: 68°   Visibility: 6mi
Dew Point: 50°   Wind: 10mph
Humidity: 52%   Direction: 360°N
Pressure: 30.09"   Gusts: NA
Location:  19.27°N, 97.93°E
Report Text: VTCC 221330Z 36009KT 9999 FEW040 BKN300 20/10 Q1019 A3010 NOSIG
Loading
Personal Weather Stations






























Interactive Weather Map New forecast layout! Learn more

10-Day Weather Forecast

Advertisements
Track Severe Weather on mobile